Time;durP1;ratioP1;P1;durP2;ratioP2;P2;SDS_P1;SDS_P2;PMS_P1;PMS_P2;Temp;Humidity;BMP_temperature;BMP_pressure;BME280_temperature;BME280_humidity;BME280_pressure;Samples;Min_cycle;Max_cycle;Signal;HPM_P1;HPM_P2
2021/05/29 00:01:08;;;;;;;14.23;11.95;;;;;;;11.04;100.00;100604.63;257481;1099;114556;-66
2021/05/29 00:06:20;;;;;;;13.55;12.05;;;;;;;11.08;100.00;100599.13;258352;1104;114732;-70
2021/05/29 00:11:26;;;;;;;11.25;10.05;;;;;;;11.02;100.00;100602.03;259415;1087;114604;-69
2021/05/29 00:21:45;;;;;;;9.53;8.63;;;;;;;11.15;100.00;100607.74;258793;1088;114410;-67
2021/05/29 00:26:48;;;;;;;9.88;8.88;;;;;;;11.26;100.00;100605.54;256881;1100;114404;-72
2021/05/29 00:31:50;;;;;;;9.15;8.35;;;;;;;11.31;100.00;100614.23;257875;1104;114197;-71
2021/05/29 00:36:55;;;;;;;8.73;7.90;;;;;;;11.39;100.00;100615.72;257254;1104;114248;-72
2021/05/29 00:41:58;;;;;;;8.78;7.98;;;;;;;11.44;100.00;100608.39;258049;1099;114458;-70
2021/05/29 00:47:01;;;;;;;9.48;8.55;;;;;;;11.48;100.00;100600.20;257020;1104;114398;-68
2021/05/29 00:52:03;;;;;;;8.10;7.37;;;;;;;11.42;100.00;100595.12;256688;1099;114210;-71
2021/05/29 00:57:06;;;;;;;8.90;7.90;;;;;;;11.40;100.00;100599.64;256469;1104;114418;-66
2021/05/29 01:02:10;;;;;;;8.75;7.95;;;;;;;11.45;100.00;100596.79;257063;1100;114642;-67
2021/05/29 01:07:15;;;;;;;8.45;7.65;;;;;;;11.36;100.00;100607.83;256675;1104;114589;-67
2021/05/29 01:12:18;;;;;;;8.10;7.40;;;;;;;11.35;100.00;100600.78;258231;1099;114519;-73
2021/05/29 01:17:24;;;;;;;9.03;8.03;;;;;;;11.28;100.00;100598.32;258016;1100;114289;-73
2021/05/29 01:22:53;;;;;;;7.65;6.95;;;;;;;11.25;100.00;100603.80;257238;1104;114902;-71
2021/05/29 01:28:09;;;;;;;7.60;6.88;;;;;;;11.42;100.00;100596.90;259353;1088;114295;-55
2021/05/29 01:33:14;;;;;;;10.40;9.15;;;;;;;11.30;100.00;100601.81;258314;1104;114718;-71
2021/05/29 01:38:18;;;;;;;8.35;7.55;;;;;;;11.15;100.00;100597.07;258941;1104;114619;-73
2021/05/29 01:43:28;;;;;;;9.38;8.48;;;;;;;11.28;100.00;100603.66;257074;1100;114460;-72
2021/05/29 01:48:44;;;;;;;8.68;7.88;;;;;;;11.35;100.00;100608.78;258161;1088;114648;-71
2021/05/29 01:53:47;;;;;;;9.80;8.90;;;;;;;11.36;100.00;100599.81;257514;1104;115444;-68
2021/05/29 01:58:54;;;;;;;9.05;8.15;;;;;;;11.23;100.00;100613.66;259128;1086;114587;-69
2021/05/29 02:03:57;;;;;;;8.50;7.80;;;;;;;11.19;100.00;100604.05;257849;1090;114542;-70
2021/05/29 02:08:59;;;;;;;8.25;7.50;;;;;;;11.13;100.00;100609.63;256880;1100;114612;-71
2021/05/29 02:14:01;;;;;;;7.65;6.93;;;;;;;11.21;100.00;100612.84;257123;1100;114653;-71
2021/05/29 02:19:04;;;;;;;11.80;7.95;;;;;;;11.27;100.00;100612.63;257651;1086;115009;-72
2021/05/29 02:24:06;;;;;;;7.40;6.70;;;;;;;11.28;100.00;100610.81;256517;1104;114741;-70
2021/05/29 02:29:09;;;;;;;6.90;6.30;;;;;;;11.28;100.00;100611.66;257918;1104;114440;-67
2021/05/29 02:34:27;;;;;;;7.73;7.03;;;;;;;11.27;100.00;100615.29;257577;1100;114376;-69
2021/05/29 02:39:29;;;;;;;7.80;7.03;;;;;;;11.21;100.00;100622.66;259502;1088;114543;-72
2021/05/29 02:44:31;;;;;;;6.73;6.23;;;;;;;11.19;100.00;100625.39;257520;1105;114351;-71
2021/05/29 02:49:35;;;;;;;7.73;6.55;;;;;;;11.21;100.00;100623.51;258582;1104;114837;-71
2021/05/29 02:54:43;;;;;;;8.15;7.45;;;;;;;11.12;100.00;100637.23;257610;1100;114859;-72
2021/05/29 03:00:21;;;;;;;8.10;7.33;;;;;;;10.91;100.00;100629.12;259450;1099;113340;-70
2021/05/29 03:05:23;;;;;;;;;;;;;;;11.07;100.00;100631.17;257164;1096;114616;-69
2021/05/29 03:10:26;;;;;;;7.43;6.73;;;;;;;11.09;100.00;100630.22;259963;1104;103041;-71
2021/05/29 03:15:28;;;;;;;6.75;6.20;;;;;;;11.11;100.00;100628.34;259150;1100;113610;-71
2021/05/29 03:20:39;;;;;;;6.70;6.20;;;;;;;11.12;100.00;100629.22;256622;1106;113597;-70
2021/05/29 03:25:57;;;;;;;6.67;6.17;;;;;;;11.07;100.00;100624.06;257175;1096;114630;-70
2021/05/29 03:31:01;;;;;;;5.75;5.35;;;;;;;11.12;100.00;100622.08;257456;1104;114667;-71
2021/05/29 03:36:04;;;;;;;5.55;5.15;;;;;;;11.13;100.00;100622.97;256804;1104;115058;-71
2021/05/29 03:41:07;;;;;;;5.43;5.00;;;;;;;11.12;100.00;100619.41;258502;1104;114263;-66
2021/05/29 03:46:09;;;;;;;5.40;5.00;;;;;;;11.07;100.00;100621.39;257166;1104;114532;-70
2021/05/29 03:51:11;;;;;;;5.45;5.05;;;;;;;11.07;100.00;100613.39;257551;1100;114585;-72
2021/05/29 03:56:13;;;;;;;4.53;4.13;;;;;;;11.11;100.00;100619.48;258049;1104;115030;-73
2021/05/29 04:01:21;;;;;;;5.65;4.80;;;;;;;11.13;100.00;100620.30;257866;1104;115190;-68
2021/05/29 04:06:34;;;;;;;;;;;;;;;11.11;100.00;100627.48;256712;1099;114527;-68
2021/05/29 04:11:37;;;;;;;4.60;4.20;;;;;;;11.08;100.00;100617.80;259958;1088;103063;-71
2021/05/29 04:16:42;;;;;;;6.08;5.33;;;;;;;11.02;100.00;100625.16;257800;1100;115106;-70
2021/05/29 04:21:50;;;;;;;6.03;4.35;;;;;;;10.95;100.00;100636.06;256572;1102;114468;-73
2021/05/29 04:26:53;;;;;;;4.38;4.08;;;;;;;11.02;100.00;100634.05;256908;1107;114362;-66
2021/05/29 04:31:59;;;;;;;4.45;4.15;;;;;;;10.95;100.00;100628.06;259017;1088;115672;-69
2021/05/29 04:37:02;;;;;;;5.55;5.08;;;;;;;10.96;100.00;100626.28;257178;1104;114828;-73
2021/05/29 04:42:05;;;;;;;4.93;4.40;;;;;;;10.93;100.00;100629.05;257980;1100;114633;-74
2021/05/29 04:47:07;;;;;;;5.65;5.25;;;;;;;10.84;100.00;100635.61;256102;1107;114971;-72
2021/05/29 04:52:10;;;;;;;5.73;5.10;;;;;;;10.92;100.00;100632.64;257797;1104;114527;-69
2021/05/29 04:57:14;;;;;;;4.93;4.63;;;;;;;11.00;100.00;100628.75;256826;1100;114319;-74
2021/05/29 05:02:23;;;;;;;5.88;5.38;;;;;;;11.13;100.00;100641.64;259616;1089;115534;-74
2021/05/29 05:07:26;;;;;;;6.98;6.38;;;;;;;10.91;100.00;100646.89;256624;1100;114500;-75
2021/05/29 05:12:28;;;;;;;6.50;5.95;;;;;;;11.06;100.00;100645.47;256085;1107;114711;-67
2021/05/29 05:17:31;;;;;;;5.30;4.90;;;;;;;11.25;100.00;100649.16;256633;1100;114586;-66
2021/05/29 05:22:34;;;;;;;4.83;4.50;;;;;;;11.27;100.00;100647.31;256974;1107;114576;-72
2021/05/29 05:27:37;;;;;;;4.90;4.40;;;;;;;11.30;100.00;100644.51;256929;1107;114685;-67
2021/05/29 05:32:45;;;;;;;4.75;4.35;;;;;;;11.39;100.00;100651.27;256633;1106;114752;-65
2021/05/29 05:37:48;;;;;;;4.58;4.18;;;;;;;11.29;100.00;100642.77;256911;1100;114390;-66
2021/05/29 05:42:50;;;;;;;4.33;4.03;;;;;;;11.58;100.00;100651.42;257833;1088;114527;-65
2021/05/29 05:47:52;;;;;;;4.20;3.80;;;;;;;11.72;100.00;100647.32;257691;1104;115127;-66
2021/05/29 05:52:55;;;;;;;4.10;3.80;;;;;;;11.89;100.00;100647.52;256837;1100;114341;-70
2021/05/29 05:58:02;;;;;;;5.28;3.10;;;;;;;11.91;100.00;100650.97;257329;1100;114672;-67
2021/05/29 06:03:27;;;;;;;3.90;3.60;;;;;;;11.92;100.00;100651.86;257200;1088;114334;-72
2021/05/29 06:08:30;;;;;;;3.50;3.10;;;;;;;11.87;100.00;100662.72;257360;1099;114720;-72
2021/05/29 06:23:59;;;;;;;5.55;2.85;;;;;;;11.85;100.00;100667.25;256929;1105;114399;-66
2021/05/29 06:29:04;;;;;;;4.48;4.08;;;;;;;11.92;100.00;100667.88;257254;1099;115031;-72
2021/05/29 06:34:06;;;;;;;2.70;2.50;;;;;;;12.02;100.00;100666.58;260357;1104;114706;-68
2021/05/29 06:39:12;;;;;;;3.00;2.73;;;;;;;12.17;100.00;100665.09;259488;1099;114722;-74
2021/05/29 06:44:18;;;;;;;2.70;2.50;;;;;;;12.03;100.00;100672.81;257238;1099;114629;-69
2021/05/29 06:49:21;;;;;;;2.60;2.40;;;;;;;12.32;100.00;100668.05;257859;1099;114666;-71
2021/05/29 06:59:29;;;;;;;7.98;6.00;;;;;;;12.55;100.00;100675.91;256974;1099;114447;-72
2021/05/29 07:04:31;;;;;;;2.37;2.17;;;;;;;12.55;100.00;100673.24;256409;1104;114377;-67
2021/05/29 07:09:34;;;;;;;2.13;2.03;;;;;;;12.72;100.00;100676.98;256646;1100;114554;-67
2021/05/29 07:14:36;;;;;;;2.18;1.78;;;;;;;12.63;100.00;100672.03;259098;1104;114911;-68
2021/05/29 07:19:46;;;;;;;2.00;1.90;;;;;;;12.50;100.00;100664.56;257301;1100;114673;-73
2021/05/29 07:25:06;;;;;;;2.70;2.50;;;;;;;12.52;100.00;100676.07;256821;1104;114731;-73
2021/05/29 07:30:13;;;;;;;4.85;2.58;;;;;;;12.51;100.00;100666.30;256033;1104;114601;-70
2021/05/29 07:35:16;;;;;;;2.98;1.93;;;;;;;12.65;100.00;100678.19;256245;1099;114649;-68
2021/05/29 07:40:18;;;;;;;2.18;2.08;;;;;;;12.95;100.00;100681.30;256450;1099;114639;-67
2021/05/29 07:45:21;;;;;;;1.88;1.78;;;;;;;12.99;100.00;100676.67;256361;1104;114529;-69
2021/05/29 07:50:23;;;;;;;3.03;2.15;;;;;;;12.66;100.00;100679.94;257042;1100;114458;-72
2021/05/29 07:55:25;;;;;;;2.15;1.95;;;;;;;12.68;100.00;100680.75;256383;1100;114762;-72
2021/05/29 08:00:27;;;;;;;3.08;2.85;;;;;;;12.99;100.00;100671.33;258744;1088;115293;-72
2021/05/29 08:05:30;;;;;;;3.93;3.50;;;;;;;13.11;100.00;100670.75;257751;1104;114333;-71
2021/05/29 08:10:32;;;;;;;2.93;2.73;;;;;;;12.93;100.00;100669.82;257067;1099;114404;-71
2021/05/29 08:15:34;;;;;;;2.60;2.40;;;;;;;12.75;100.00;100674.19;256705;1100;114486;-70
2021/05/29 08:20:43;;;;;;;2.38;2.18;;;;;;;13.03;100.00;100676.47;256775;1100;114646;-70
2021/05/29 08:25:46;;;;;;;2.40;2.20;;;;;;;13.01;100.00;100680.16;256290;1104;114423;-71
2021/05/29 08:30:49;;;;;;;2.43;2.23;;;;;;;13.12;100.00;100667.14;258514;1104;114505;-68
2021/05/29 08:35:51;;;;;;;2.68;2.48;;;;;;;13.52;100.00;100667.99;256323;1104;114370;-67
2021/05/29 08:40:53;;;;;;;2.10;1.90;;;;;;;13.42;100.00;100674.72;256169;1099;114412;-67
2021/05/29 08:45:55;;;;;;;2.40;2.03;;;;;;;13.37;100.00;100666.01;256538;1099;114541;-68
2021/05/29 08:51:14;;;;;;;2.25;2.05;;;;;;;13.17;100.00;100669.61;256684;1099;114426;-71
2021/05/29 08:56:18;;;;;;;2.15;1.95;;;;;;;13.22;100.00;100679.17;256449;1104;114492;-68
2021/05/29 09:01:22;;;;;;;2.40;1.80;;;;;;;13.05;100.00;100677.28;256252;1100;114665;-74
2021/05/29 09:06:30;;;;;;;4.63;2.28;;;;;;;13.20;100.00;100675.69;256470;1104;114898;-69
2021/05/29 09:11:43;;;;;;;2.45;2.23;;;;;;;13.22;100.00;100678.28;256872;1099;114966;-69
2021/05/29 09:17:19;;;;;;;2.13;1.93;;;;;;;13.16;100.00;100687.48;257061;1099;114558;-72
2021/05/29 09:22:26;;;;;;;1.83;1.73;;;;;;;13.40;100.00;100676.59;256813;1099;114649;-75
2021/05/29 09:27:31;;;;;;;2.30;2.10;;;;;;;13.39;100.00;100675.73;256468;1099;114683;-73
2021/05/29 09:32:38;;;;;;;3.93;2.53;;;;;;;13.26;100.00;100673.66;256417;1100;114430;-67
2021/05/29 09:37:42;;;;;;;2.17;1.97;;;;;;;13.29;100.00;100673.53;256434;1104;114625;-71
2021/05/29 09:42:45;;;;;;;2.83;2.63;;;;;;;13.37;100.00;100682.92;255127;1100;823981;-72
2021/05/29 09:48:19;;;;;;;2.53;2.33;;;;;;;13.55;100.00;100677.69;257339;1104;114430;-72
2021/05/29 09:53:30;;;;;;;3.20;2.60;;;;;;;13.89;100.00;100673.36;257734;1099;114737;-67
2021/05/29 09:58:53;;;;;;;5.03;2.65;;;;;;;13.98;100.00;100663.98;256268;1100;114365;-71
2021/05/29 10:03:56;;;;;;;2.48;2.28;;;;;;;13.58;100.00;100676.66;256216;1104;114443;-73
2021/05/29 10:08:58;;;;;;;1.78;1.68;;;;;;;13.50;100.00;100677.91;256500;1104;114576;-67
2021/05/29 10:14:00;;;;;;;2.18;1.90;;;;;;;13.82;100.00;100661.20;256803;1100;116261;-74
2021/05/29 10:19:07;;;;;;;2.48;1.70;;;;;;;14.06;100.00;100653.75;256667;1100;114448;-72
2021/05/29 10:24:10;;;;;;;2.05;1.60;;;;;;;14.50;100.00;100647.92;256626;1104;114276;-73
2021/05/29 10:29:13;;;;;;;2.35;1.80;;;;;;;14.84;100.00;100650.64;256534;1104;114725;-68
2021/05/29 10:34:16;;;;;;;6.60;2.70;;;;;;;14.82;100.00;100653.41;256381;1100;114468;-67
2021/05/29 10:39:24;;;;;;;2.70;2.47;;;;;;;14.44;100.00;100663.45;256238;1104;114700;-71
2021/05/29 10:44:29;;;;;;;2.83;1.93;;;;;;;14.07;100.00;100662.65;256808;1099;114479;-68
2021/05/29 10:49:50;;;;;;;2.13;1.93;;;;;;;14.14;100.00;100662.28;256183;1100;114700;-72
2021/05/29 10:55:16;;;;;;;2.20;2.03;;;;;;;14.38;100.00;100659.27;256632;1100;114420;-74
2021/05/29 11:00:39;;;;;;;3.83;2.18;;;;;;;14.93;100.00;100657.35;256051;1104;114554;-72
2021/05/29 11:05:56;;;;;;;2.68;2.48;;;;;;;14.53;100.00;100662.98;255529;1101;114493;-76
2021/05/29 11:10:58;;;;;;;3.75;1.68;;;;;;;14.70;98.06;100658.55;255646;1100;114752;-69
2021/05/29 11:16:05;;;;;;;;;;;;;;;14.53;100.00;100657.63;255889;1107;114702;-67
2021/05/29 11:21:10;;;;;;;1.63;1.40;;;;;;;14.24;100.00;100672.52;256455;1107;103103;-73
2021/05/29 11:26:12;;;;;;;2.65;2.25;;;;;;;14.80;93.23;100670.55;256210;1100;114276;-71
2021/05/29 11:31:15;;;;;;;1.13;1.10;;;;;;;15.71;68.43;100672.73;255405;1106;113113;-72
2021/05/29 11:36:32;;;;;;;1.78;1.10;;;;;;;15.84;70.13;100675.63;255767;1100;113191;-73
2021/05/29 11:41:34;;;;;;;2.35;1.50;;;;;;;15.63;67.35;100665.13;255736;1106;114347;-71
2021/05/29 11:46:36;;;;;;;2.20;1.60;;;;;;;15.06;71.93;100671.84;255284;1105;114265;-72
2021/05/29 11:51:42;;;;;;;1.33;1.10;;;;;;;15.48;68.69;100660.62;255651;1106;114347;-72
2021/05/29 11:56:47;;;;;;;1.53;1.20;;;;;;;16.03;73.41;100654.78;255345;1100;113854;-71
2021/05/29 12:01:53;;;;;;;2.00;1.20;;;;;;;16.55;69.04;100649.94;256136;1100;114474;-72
2021/05/29 12:06:58;;;;;;;1.40;1.30;;;;;;;16.49;70.36;100647.62;255496;1100;114381;-69
2021/05/29 12:12:05;;;;;;;2.03;1.70;;;;;;;15.35;72.25;100647.00;255222;1100;114357;-73
2021/05/29 12:17:14;;;;;;;3.55;1.98;;;;;;;16.47;69.99;100639.62;255680;1100;114387;-75
2021/05/29 12:22:26;;;;;;;2.00;1.50;;;;;;;15.65;69.28;100651.59;255569;1100;114224;-72
2021/05/29 12:27:42;;;;;;;1.43;1.33;;;;;;;16.12;67.59;100649.82;256196;1105;114309;-71
2021/05/29 12:32:48;;;;;;;1.80;1.63;;;;;;;15.68;71.33;100638.00;256224;1104;114443;-72
2021/05/29 12:37:51;;;;;;;1.57;1.47;;;;;;;15.55;73.25;100645.88;255656;1100;114858;-69
2021/05/29 12:42:54;;;;;;;2.97;1.53;;;;;;;15.36;70.58;100641.56;256552;1107;114095;-67
2021/05/29 12:48:00;;;;;;;1.78;1.30;;;;;;;15.41;70.92;100642.16;255773;1100;114293;-71
2021/05/29 13:02:33;;;;;;;2.60;1.45;;;;;;;15.59;74.33;100637.56;257284;1090;104473;-72
2021/05/29 13:07:36;;;;;;;1.65;1.30;;;;;;;15.93;71.24;100630.26;259103;1104;114151;-70
2021/05/29 13:12:39;;;;;;;1.60;1.50;;;;;;;16.35;74.27;100622.39;257350;1104;113891;-68
2021/05/29 13:17:41;;;;;;;1.63;1.53;;;;;;;16.65;73.60;100621.48;257563;1104;114027;-72
2021/05/29 13:22:44;;;;;;;2.35;1.50;;;;;;;16.37;71.19;100623.17;257100;1104;113874;-73
2021/05/29 13:27:50;;;;;;;1.65;1.55;;;;;;;16.24;73.81;100616.80;257020;1104;114056;-72
2021/05/29 13:33:08;;;;;;;1.55;1.45;;;;;;;16.53;69.37;100622.23;256691;1100;113931;-68
2021/05/29 13:38:11;;;;;;;1.65;1.55;;;;;;;15.84;69.62;100621.88;257291;1100;114627;-72
2021/05/29 13:43:13;;;;;;;2.58;1.30;;;;;;;15.65;70.53;100630.95;258089;1104;114002;-75
2021/05/29 13:48:22;;;;;;;1.90;1.80;;;;;;;15.67;70.36;100618.30;258015;1104;114124;-71
2021/05/29 13:53:29;;;;;;;2.85;1.50;;;;;;;16.01;68.70;100621.73;257679;1098;114833;-73
2021/05/29 13:58:37;;;;;;;1.90;1.50;;;;;;;16.10;70.39;100623.03;256818;1104;114212;-76
2021/05/29 14:03:39;;;;;;;2.33;1.50;;;;;;;16.52;70.50;100623.20;257004;1100;114517;-73
2021/05/29 14:08:41;;;;;;;2.80;1.60;;;;;;;16.72;68.46;100614.75;258730;1104;114311;-70
2021/05/29 14:13:43;;;;;;;2.20;1.15;;;;;;;16.68;67.09;100613.23;258409;1086;114877;-72
2021/05/29 14:18:47;;;;;;;1.40;1.30;;;;;;;16.37;63.90;100619.63;258043;1088;114224;-72
2021/05/29 14:23:49;;;;;;;1.40;1.30;;;;;;;15.81;65.97;100624.69;257249;1104;114123;-72
2021/05/29 14:28:52;;;;;;;4.53;3.40;;;;;;;15.57;66.99;100622.48;258732;1104;114410;-69
2021/05/29 14:33:59;;;;;;;1.63;1.53;;;;;;;15.96;65.94;100618.45;257617;1099;114276;-72
2021/05/29 14:39:04;;;;;;;2.18;2.00;;;;;;;16.13;67.32;100620.14;257468;1104;114104;-73
2021/05/29 14:44:09;;;;;;;2.18;1.13;;;;;;;15.59;66.09;100615.19;257423;1100;114282;-74
2021/05/29 14:49:11;;;;;;;0.98;0.90;;;;;;;15.25;66.95;100622.48;257398;1100;114595;-70
2021/05/29 14:54:13;;;;;;;1.85;1.30;;;;;;;15.33;66.14;100614.86;257504;1100;114858;-70
2021/05/29 14:59:16;;;;;;;1.33;1.20;;;;;;;15.21;67.18;100615.56;258084;1104;114261;-71
2021/05/29 15:04:20;;;;;;;2.13;1.20;;;;;;;15.18;67.20;100611.23;256744;1099;114111;-74
2021/05/29 15:09:26;;;;;;;1.58;0.70;;;;;;;15.16;65.37;100612.24;257587;1099;114270;-73
2021/05/29 15:14:33;;;;;;;1.10;1.00;;;;;;;15.06;63.04;100618.14;258169;1099;114370;-74
2021/05/29 15:19:39;;;;;;;0.75;0.70;;;;;;;15.06;63.46;100617.26;257528;1100;114494;-74
2021/05/29 15:24:50;;;;;;;1.58;0.80;;;;;;;14.93;63.11;100622.45;258531;1104;114160;-74
2021/05/29 15:29:58;;;;;;;1.28;0.80;;;;;;;15.20;64.85;100628.10;257823;1104;114704;-74
2021/05/29 15:35:04;;;;;;;1.20;1.10;;;;;;;15.15;64.53;100627.50;257594;1098;114263;-76
2021/05/29 15:40:12;;;;;;;1.95;0.98;;;;;;;16.62;59.84;100624.38;257263;1104;114400;-75
2021/05/29 15:45:14;;;;;;;0.88;0.80;;;;;;;17.12;56.43;100624.87;258941;1100;114392;-76
2021/05/29 15:50:16;;;;;;;1.03;0.93;;;;;;;16.41;59.89;100629.23;257000;1104;114017;-78
2021/05/29 15:55:19;;;;;;;2.83;1.13;;;;;;;16.08;63.41;100627.63;258559;1104;114593;-77
2021/05/29 16:00:24;;;;;;;1.18;1.00;;;;;;;15.76;63.65;100620.47;257597;1104;114633;-74
2021/05/29 16:05:30;;;;;;;2.35;1.10;;;;;;;15.57;66.06;100622.48;257157;1104;114237;-73
2021/05/29 16:10:32;;;;;;;2.38;1.40;;;;;;;15.46;67.63;100623.10;258073;1104;114445;-75
2021/05/29 16:15:35;;;;;;;2.65;1.30;;;;;;;15.46;66.92;100620.42;258470;1104;114167;-72
2021/05/29 16:20:37;;;;;;;1.88;1.53;;;;;;;15.60;64.67;100617.80;258085;1105;114112;-71
2021/05/29 16:25:39;;;;;;;1.20;1.15;;;;;;;15.78;66.61;100632.00;260467;1099;114076;-70
2021/05/29 16:30:42;;;;;;;4.28;1.98;;;;;;;16.09;63.44;100634.73;258169;1104;114224;-70
2021/05/29 16:35:50;;;;;;;17.10;3.20;;;;;;;15.76;67.21;100627.64;258922;1100;113999;-75
2021/05/29 17:42:08;;;;;;;1.63;1.53;;;;;;;14.77;69.58;100660.85;259488;1089;105327;-71
2021/05/29 17:47:10;;;;;;;1.88;1.33;;;;;;;14.61;70.78;100665.25;257721;1096;114264;-78
2021/05/29 17:52:12;;;;;;;1.33;1.00;;;;;;;14.60;72.42;100663.52;258344;1101;113911;-70
2021/05/29 17:57:15;;;;;;;1.25;1.10;;;;;;;14.49;73.61;100666.75;259067;1096;114324;-77
2021/05/29 18:02:24;;;;;;;1.43;1.30;;;;;;;14.44;71.75;100664.34;257692;1096;114238;-77
2021/05/29 18:07:27;;;;;;;2.00;1.33;;;;;;;14.44;73.45;100667.02;257102;1101;114581;-76
2021/05/29 18:12:29;;;;;;;1.85;0.90;;;;;;;14.37;73.41;100673.65;257117;1101;114303;-74
2021/05/29 18:17:31;;;;;;;2.33;1.65;;;;;;;14.34;73.82;100665.75;258746;1101;115221;-74
2021/05/29 18:22:34;;;;;;;1.63;1.23;;;;;;;14.31;72.82;100676.62;257162;1096;114012;-75
2021/05/29 18:27:37;;;;;;;2.58;1.50;;;;;;;14.29;73.09;100678.53;257209;1101;114068;-74
2021/05/29 18:32:39;;;;;;;3.17;1.37;;;;;;;14.26;73.58;100671.52;257270;1097;113957;-75
2021/05/29 18:42:44;;;;;;;2.50;1.80;;;;;;;13.93;74.86;100682.11;257451;1101;114183;-72
2021/05/29 18:47:46;;;;;;;2.08;1.88;;;;;;;13.71;76.66;100681.34;257258;1096;113973;-74
2021/05/29 18:52:49;;;;;;;5.70;3.10;;;;;;;13.54;82.16;100682.16;256656;1101;114051;-74
2021/05/29 18:58:05;;;;;;;3.88;3.20;;;;;;;13.45;85.63;100696.00;256442;1096;114299;-74
2021/05/29 19:03:16;;;;;;;3.53;1.98;;;;;;;13.35;87.49;100694.66;256855;1096;113941;-76
2021/05/29 19:13:32;;;;;;;3.35;2.50;;;;;;;13.17;92.09;100697.27;257720;1096;114253;-73
2021/05/29 19:18:34;;;;;;;4.08;3.60;;;;;;;13.23;92.58;100705.01;256867;1101;114391;-74
2021/05/29 19:23:42;;;;;;;2.53;2.33;;;;;;;13.26;94.97;100717.38;257077;1101;114449;-77
2021/05/29 19:28:50;;;;;;;2.20;2.00;;;;;;;13.37;95.35;100719.56;257349;1101;114479;-77
2021/05/29 19:39:19;;;;;;;3.40;3.10;;;;;;;13.44;94.17;100720.16;262293;1101;113418;-71
2021/05/29 20:26:56;;;;;;;3.80;3.50;;;;;;;13.16;95.35;100748.16;257206;1096;114271;-69
2021/05/29 20:31:58;;;;;;;3.60;3.30;;;;;;;13.25;94.64;100753.11;257335;1095;113345;-75
2021/05/29 20:37:00;;;;;;;4.43;3.93;;;;;;;13.27;95.62;100747.68;256888;1097;114175;-74
2021/05/29 20:42:03;;;;;;;6.43;4.15;;;;;;;13.16;98.26;100748.16;257233;1097;114564;-71
2021/05/29 20:47:05;;;;;;;4.63;4.23;;;;;;;13.13;98.04;100746.50;256864;1097;114382;-73
2021/05/29 20:52:08;;;;;;;4.27;3.97;;;;;;;12.98;99.47;100745.39;257016;1101;113994;-72
2021/05/29 20:57:13;;;;;;;6.20;4.68;;;;;;;12.81;99.19;100747.92;257014;1101;114286;-69
2021/05/29 21:02:16;;;;;;;5.33;4.33;;;;;;;12.88;97.78;100750.28;257031;1101;114257;-73
2021/05/29 21:07:20;;;;;;;5.43;3.85;;;;;;;12.83;96.07;100762.12;257226;1096;114672;-68
2021/05/29 21:12:23;;;;;;;4.78;3.18;;;;;;;12.68;97.21;100769.87;257530;1096;114174;-73
2021/05/29 21:22:29;;;;;;;4.20;3.80;;;;;;;12.54;99.76;100767.80;257118;1101;114274;-67
2021/05/29 21:27:31;;;;;;;4.08;3.33;;;;;;;12.39;100.00;100769.29;257447;1096;114462;-71
2021/05/29 21:32:33;;;;;;;4.03;3.10;;;;;;;12.32;100.00;100772.30;257576;1101;114618;-72
2021/05/29 21:37:36;;;;;;;4.18;3.78;;;;;;;12.21;100.00;100772.73;257697;1096;114831;-75
2021/05/29 21:42:40;;;;;;;4.73;4.33;;;;;;;12.14;100.00;100777.44;258335;1097;114708;-74
2021/05/29 21:53:03;;;;;;;4.63;4.20;;;;;;;12.06;100.00;100780.44;257838;1097;114736;-62
2021/05/29 21:58:07;;;;;;;4.48;4.08;;;;;;;12.11;100.00;100780.25;258563;1096;114183;-73
2021/05/29 22:03:24;;;;;;;3.88;3.58;;;;;;;12.27;100.00;100791.19;257545;1101;115023;-72
2021/05/29 22:08:28;;;;;;;6.05;4.20;;;;;;;12.25;100.00;100788.59;258226;1096;114671;-70
2021/05/29 22:13:49;;;;;;;4.40;3.80;;;;;;;12.30;100.00;100791.05;257555;1101;114942;-71
2021/05/29 22:19:02;;;;;;;4.13;3.58;;;;;;;12.24;100.00;100786.84;257871;1101;114949;-62
2021/05/29 22:29:34;;;;;;;3.58;3.10;;;;;;;12.23;100.00;100784.20;257450;1096;114158;-75
2021/05/29 22:34:45;;;;;;;3.20;2.90;;;;;;;12.16;100.00;100778.27;259007;1096;114512;-69
2021/05/29 22:39:52;;;;;;;3.68;2.90;;;;;;;12.10;100.00;100778.52;259093;1096;116433;-71
2021/05/29 22:44:56;;;;;;;4.78;3.28;;;;;;;12.05;100.00;100775.16;258868;1101;114485;-73
2021/05/29 22:49:58;;;;;;;4.45;3.58;;;;;;;12.05;100.00;100780.50;258144;1101;114671;-68
2021/05/29 22:55:00;;;;;;;3.40;2.93;;;;;;;12.01;100.00;100787.77;258687;1101;114768;-74
2021/05/29 23:00:08;;;;;;;3.60;3.30;;;;;;;12.00;100.00;100794.05;258242;1101;114299;-73
2021/05/29 23:05:18;;;;;;;2.85;2.65;;;;;;;11.88;100.00;100806.05;257645;1101;114453;-71
2021/05/29 23:10:24;;;;;;;4.45;3.55;;;;;;;11.72;100.00;100807.55;258369;1096;114556;-73
2021/05/29 23:15:27;;;;;;;4.00;3.60;;;;;;;11.61;100.00;100802.62;257392;1097;114298;-71
2021/05/29 23:20:29;;;;;;;3.40;3.10;;;;;;;11.55;100.00;100803.74;258316;1096;114226;-72
2021/05/29 23:25:31;;;;;;;3.85;2.53;;;;;;;11.48;100.00;100800.42;257780;1101;114619;-71
2021/05/29 23:30:37;;;;;;;3.18;2.90;;;;;;;11.46;100.00;100798.73;258558;1101;114720;-68
2021/05/29 23:35:39;;;;;;;2.93;2.63;;;;;;;11.39;100.00;100803.42;257483;1101;114601;-73
2021/05/29 23:40:42;;;;;;;3.25;2.95;;;;;;;11.34;100.00;100804.54;257599;1101;114714;-71
2021/05/29 23:45:44;;;;;;;2.58;2.38;;;;;;;11.16;100.00;100801.59;257324;1101;114315;-72
2021/05/29 23:50:53;;;;;;;2.98;2.70;;;;;;;11.18;100.00;100809.53;258020;1101;114226;-75
2021/05/29 23:55:58;;;;;;;2.70;2.50;;;;;;;11.06;100.00;100808.20;257541;1101;114445;-73
